Time;durP1;ratioP1;P1;durP2;ratioP2;P2;SDS_P1;SDS_P2;PMS_P1;PMS_P2;Temp;Humidity;BMP_temperature;BMP_pressure;BME280_temperature;BME280_humidity;BME280_pressure;Samples;Min_cycle;Max_cycle;Signal;HPM_P1;HPM_P2
2023/01/28 00:00:51;;;;;;;12.95;3.10;;;;;;;2.64;75.12;100658.22;6113638;23;20056;-84
2023/01/28 00:03:17;;;;;;;5.15;2.88;;;;;;;2.65;75.22;100660.78;6067546;23;20022;-84
2023/01/28 00:05:44;;;;;;;4.82;2.90;;;;;;;2.63;75.15;100653.91;6115745;23;20458;-84
2023/01/28 00:08:12;;;;;;;7.45;3.00;;;;;;;2.66;75.10;100659.88;6067934;23;20072;-84
2023/01/28 00:10:40;;;;;;;6.70;3.28;;;;;;;2.65;75.32;100657.31;6066873;23;20088;-84
2023/01/28 00:13:10;;;;;;;8.30;3.53;;;;;;;2.66;75.17;100656.41;6067756;23;20025;-84
2023/01/28 00:15:37;;;;;;;4.90;2.60;;;;;;;2.67;75.38;100653.72;6067364;23;20394;-84
2023/01/28 00:18:03;;;;;;;7.20;3.00;;;;;;;2.65;75.09;100652.94;6090737;23;20040;-83
2023/01/28 00:20:30;;;;;;;6.55;3.38;;;;;;;2.64;75.10;100650.34;6092242;23;20018;-84
2023/01/28 00:22:57;;;;;;;6.32;3.13;;;;;;;2.64;75.31;100651.22;6090937;23;20018;-84
2023/01/28 00:25:24;;;;;;;7.97;3.47;;;;;;;2.65;75.26;100645.06;6114919;23;20034;-84
2023/01/28 00:27:50;;;;;;;5.85;3.33;;;;;;;2.67;75.58;100658.97;6066852;23;20096;-84
2023/01/28 00:30:18;;;;;;;7.35;3.10;;;;;;;2.67;75.78;100652.84;6091480;23;20018;-84
2023/01/28 00:32:45;;;;;;;6.63;3.00;;;;;;;2.66;75.80;100648.53;6091837;23;20458;-83
2023/01/28 00:35:12;;;;;;;7.20;3.45;;;;;;;2.64;76.13;100656.44;6066320;23;20462;-84
2023/01/28 00:37:40;;;;;;;7.72;2.83;;;;;;;2.69;75.82;100653.63;6117334;23;20096;-84
2023/01/28 00:40:08;;;;;;;5.10;2.70;;;;;;;2.67;75.86;100647.59;6091089;23;20033;-83
2023/01/28 00:42:36;;;;;;;7.15;3.13;;;;;;;2.65;76.21;100652.94;6092593;23;20425;-84
2023/01/28 00:45:03;;;;;;;6.80;2.90;;;;;;;2.65;76.20;100652.94;6090070;23;20398;-84
2023/01/28 00:47:30;;;;;;;6.32;3.28;;;;;;;2.64;76.48;100651.22;6115413;23;20033;-84
2023/01/28 00:49:57;;;;;;;6.60;2.85;;;;;;;2.64;76.32;100659.06;6067180;23;20092;-83
2023/01/28 00:52:24;;;;;;;6.65;3.08;;;;;;;2.62;76.53;100650.44;6091237;23;20018;-84
2023/01/28 00:54:53;;;;;;;7.18;2.80;;;;;;;2.61;76.77;100656.59;6068051;23;20021;-84
2023/01/28 00:57:20;;;;;;;5.85;2.45;;;;;;;2.61;76.21;100652.19;6090649;23;20101;-84
2023/01/28 00:59:46;;;;;;;4.93;2.75;;;;;;;2.60;76.69;100649.66;6115246;23;20098;-84
2023/01/28 01:02:13;;;;;;;6.35;2.78;;;;;;;2.58;76.72;100648.84;6067100;23;20014;-84
2023/01/28 01:04:40;;;;;;;7.93;3.00;;;;;;;2.62;76.49;100647.81;6090679;23;20513;-84
2023/01/28 01:07:07;;;;;;;5.38;2.80;;;;;;;2.61;76.56;100643.47;6042532;23;20085;-85
2023/01/28 01:09:34;;;;;;;4.50;2.22;;;;;;;2.64;76.34;100650.34;6114560;23;20406;-84
2023/01/28 01:12:02;;;;;;;9.30;2.97;;;;;;;2.64;76.51;100655.59;6043712;23;20458;-84
2023/01/28 01:14:28;;;;;;;6.18;2.90;;;;;;;2.68;76.48;100651.94;6066848;23;20454;-84
2023/01/28 01:16:55;;;;;;;5.90;2.80;;;;;;;2.70;76.28;100642.25;6042599;23;20061;-84
2023/01/28 01:19:22;;;;;;;2.83;1.92;;;;;;;2.73;76.33;100649.97;6090826;23;20032;-84
2023/01/28 01:21:49;;;;;;;5.57;2.50;;;;;;;2.71;76.29;100644.78;6091397;23;20096;-84
2023/01/28 01:24:16;;;;;;;5.47;2.47;;;;;;;2.74;76.11;100646.44;6066314;23;20481;-84
2023/01/28 01:26:43;;;;;;;6.97;2.50;;;;;;;2.73;76.07;100645.56;6114292;23;20025;-84
2023/01/28 01:29:10;;;;;;;6.45;2.47;;;;;;;2.72;76.14;100646.50;6091112;23;20089;-83
2023/01/28 01:31:37;;;;;;;7.60;2.72;;;;;;;2.68;76.49;100644.94;6091130;23;20097;-83
2023/01/28 01:34:04;;;;;;;3.70;2.47;;;;;;;2.67;76.47;100645.84;6113835;23;20043;-83
2023/01/28 01:36:30;;;;;;;5.80;2.95;;;;;;;2.69;76.39;100646.63;6114962;23;20018;-84
2023/01/28 01:38:57;;;;;;;4.63;2.95;;;;;;;2.65;76.39;100641.59;6090758;23;20023;-84
2023/01/28 01:41:29;;;;;;;7.45;2.63;;;;;;;2.68;76.47;100647.53;6090291;23;20034;-84
2023/01/28 01:43:58;;;;;;;5.80;2.20;;;;;;;2.70;76.27;100650.97;6114302;23;20017;-84
2023/01/28 01:46:33;;;;;;;5.32;2.85;;;;;;;2.69;76.47;100654.47;6090248;23;20034;-84
2023/01/28 01:49:15;;;;;;;3.38;1.88;;;;;;;2.68;76.40;100652.78;6066269;23;20442;-84
2023/01/28 01:51:42;;;;;;;5.15;2.20;;;;;;;2.70;76.32;100652.75;6020872;23;20021;-84
2023/01/28 01:54:09;;;;;;;5.25;2.40;;;;;;;2.68;76.51;100651.94;6042553;23;20032;-84
2023/01/28 01:56:38;;;;;;;4.13;2.30;;;;;;;2.67;76.51;100655.47;6090283;23;20383;-84
2023/01/28 01:59:09;;;;;;;8.93;3.03;;;;;;;2.66;76.64;100662.50;6090540;23;20143;-84
2023/01/28 02:01:35;;;;;;;8.45;3.45;;;;;;;2.65;76.62;100658.16;6041603;23;20026;-84
2023/01/28 02:04:09;;;;;;;5.55;2.35;;;;;;;2.66;76.96;100654.63;6112331;23;20018;-83
2023/01/28 02:06:38;;;;;;;4.85;2.25;;;;;;;2.65;76.97;100652.94;6088842;23;20030;-83
2023/01/28 02:09:19;;;;;;;4.90;2.25;;;;;;;2.68;76.92;100651.94;6090491;23;20017;-84
2023/01/28 02:11:49;;;;;;;5.97;2.45;;;;;;;2.67;77.19;100663.34;6041605;23;20030;-84
2023/01/28 02:14:16;;;;;;;4.80;2.33;;;;;;;2.60;77.80;100650.50;6065927;23;20022;-84
2023/01/28 02:16:57;;;;;;;7.15;2.55;;;;;;;2.62;77.87;100655.69;6047934;23;20022;-84
2023/01/28 02:19:28;;;;;;;4.03;2.35;;;;;;;2.62;78.01;100658.31;6089828;23;20030;-84
2023/01/28 02:22:18;;;;;;;5.70;2.05;;;;;;;2.64;77.80;100661.69;6090087;23;20048;-84
2023/01/28 02:25:12;;;;;;;3.30;1.85;;;;;;;2.65;77.50;100659.94;6045259;23;20613;-84
2023/01/28 02:27:57;;;;;;;3.25;2.25;;;;;;;2.59;78.55;100661.88;6040695;23;20025;-84
2023/01/28 02:30:34;;;;;;;4.93;2.45;;;;;;;2.66;77.78;100659.88;6021079;23;20085;-84
2023/01/28 02:33:15;;;;;;;2.97;1.70;;;;;;;2.64;78.14;100660.84;6041101;23;20096;-84
2023/01/28 02:35:48;;;;;;;4.18;1.88;;;;;;;2.69;78.16;100657.09;6041288;23;20366;-83
2023/01/28 02:38:25;;;;;;;4.68;2.22;;;;;;;2.71;78.21;100667.53;6089120;23;20026;-84
2023/01/28 02:41:08;;;;;;;4.05;2.40;;;;;;;2.64;78.70;100663.47;6065264;23;20088;-83
2023/01/28 02:43:41;;;;;;;5.00;2.80;;;;;;;2.69;78.41;100670.22;6042513;23;20507;-84
2023/01/28 02:49:07;;;;;;;4.15;2.35;;;;;;;2.73;77.99;100671.81;6023774;23;20025;-84
2023/01/28 02:52:01;;;;;;;5.80;3.17;;;;;;;2.68;78.57;100659.81;6066043;23;20690;-84
2023/01/28 02:54:49;;;;;;;6.97;2.92;;;;;;;2.70;78.95;100665.84;6017946;23;20438;-84
2023/01/28 02:57:16;;;;;;;4.57;2.40;;;;;;;2.75;78.35;100669.13;6020616;23;20045;-84
2023/01/28 02:59:55;;;;;;;5.05;2.70;;;;;;;2.72;78.46;100670.13;6114284;23;20407;-84
2023/01/28 03:02:28;;;;;;;3.72;2.45;;;;;;;2.75;78.27;100677.84;6065888;23;20025;-84
2023/01/28 03:06:02;;;;;;;5.53;2.45;;;;;;;2.71;78.73;100675.41;6040303;23;20037;-83
2023/01/28 03:36:50;;;;;;;6.50;2.53;;;;;;;2.66;78.70;100686.09;6069149;23;20036;-84
2023/01/28 03:39:36;;;;;;;7.45;2.97;;;;;;;2.62;79.24;100684.53;6051849;23;20065;-84
2023/01/28 03:42:09;;;;;;;4.13;2.72;;;;;;;2.66;79.15;100680.84;6066870;23;20041;-84
2023/01/28 03:44:54;;;;;;;5.80;3.03;;;;;;;2.69;79.01;100685.09;6043933;23;20080;-84
2023/01/28 03:47:26;;;;;;;6.70;3.38;;;;;;;2.66;79.72;100690.47;6089840;23;20026;-84
2023/01/28 03:49:54;;;;;;;6.70;3.13;;;;;;;2.72;79.54;100698.97;6091663;23;20077;-84
2023/01/28 03:52:24;;;;;;;7.15;3.67;;;;;;;2.62;79.99;100697.63;6115859;23;20491;-83
2023/01/28 03:54:54;;;;;;;7.90;3.70;;;;;;;2.66;80.06;100707.06;6092068;23;20028;-84
2023/01/28 03:57:23;;;;;;;6.28;3.05;;;;;;;2.65;80.11;100710.63;6092125;23;20017;-84
2023/01/28 03:59:51;;;;;;;7.10;3.65;;;;;;;2.60;80.75;100707.34;6115416;23;20466;-84
2023/01/28 04:02:20;;;;;;;6.95;3.42;;;;;;;2.68;79.93;100710.47;6067327;23;20097;-84
2023/01/28 04:04:51;;;;;;;7.97;4.05;;;;;;;2.65;80.39;100713.25;6091974;23;20089;-84
2023/01/28 04:07:18;;;;;;;8.32;3.75;;;;;;;2.65;80.72;100709.78;6067989;23;20026;-84
2023/01/28 04:10:12;;;;;;;9.98;3.30;;;;;;;2.65;80.60;100701.91;6010626;23;20021;-84
2023/01/28 04:12:50;;;;;;;9.88;4.22;;;;;;;2.63;80.86;100706.34;6089998;23;20044;-84
2023/01/28 04:15:18;;;;;;;6.13;3.50;;;;;;;2.63;81.90;100714.22;6068109;23;20375;-85
2023/01/28 04:17:47;;;;;;;8.18;3.28;;;;;;;2.68;81.29;100712.25;6067712;23;20022;-85
2023/01/28 04:20:22;;;;;;;6.32;3.60;;;;;;;2.65;82.17;100715.88;6093536;23;20022;-84
2023/01/28 04:22:49;;;;;;;10.10;4.47;;;;;;;2.64;81.47;100722.00;6115022;23;20362;-84
2023/01/28 04:25:35;;;;;;;8.30;3.70;;;;;;;2.62;82.12;100726.47;5996462;23;20030;-84
2023/01/28 04:28:05;;;;;;;10.02;3.88;;;;;;;2.63;82.50;100722.94;6059154;23;20211;-84
2023/01/28 04:30:33;;;;;;;8.40;3.70;;;;;;;2.66;82.53;100727.19;6013579;23;20097;-85
2023/01/28 04:33:20;;;;;;;7.97;4.20;;;;;;;2.67;81.95;100732.38;6022444;23;20082;-85
2023/01/28 04:35:53;;;;;;;8.13;4.05;;;;;;;2.65;82.37;100726.34;6038479;23;20089;-85
2023/01/28 04:38:55;;;;;;;9.95;4.53;;;;;;;2.64;82.96;100731.66;5938039;23;20038;-84
2023/01/28 04:41:44;;;;;;;11.73;4.40;;;;;;;2.65;83.01;100723.72;5997891;23;20038;-85
2023/01/28 04:44:20;;;;;;;8.45;3.55;;;;;;;2.66;83.15;100727.19;5945861;23;20023;-84
2023/01/28 04:46:53;;;;;;;10.75;4.60;;;;;;;2.66;83.13;100735.91;6039149;23;20023;-84
2023/01/28 04:49:39;;;;;;;13.18;4.05;;;;;;;2.64;83.62;100736.88;5972365;23;20446;-85
2023/01/28 04:52:24;;;;;;;7.57;4.13;;;;;;;2.66;83.47;100730.66;6008410;23;20030;-84
2023/01/28 04:55:06;;;;;;;10.30;4.25;;;;;;;2.70;83.36;100734.88;6015244;23;20066;-85
2023/01/28 04:57:33;;;;;;;10.98;4.97;;;;;;;2.71;83.16;100726.09;6081490;23;20026;-84
2023/01/28 05:00:00;;;;;;;9.98;3.90;;;;;;;2.69;83.39;100733.16;6067923;23;20030;-84
2023/01/28 05:02:27;;;;;;;8.57;3.67;;;;;;;2.70;83.13;100734.03;6113567;23;20080;-84
2023/01/28 05:04:53;;;;;;;10.10;3.75;;;;;;;2.70;83.11;100736.66;6090360;23;20045;-84
2023/01/28 05:07:41;;;;;;;9.13;3.95;;;;;;;2.71;83.06;100740.97;6000829;23;20025;-84
2023/01/28 05:10:08;;;;;;;11.98;4.68;;;;;;;2.75;83.12;100732.06;6067578;23;20022;-84
2023/01/28 05:12:35;;;;;;;10.00;4.10;;;;;;;2.77;82.68;100735.47;6067144;23;20030;-84
2023/01/28 05:15:06;;;;;;;10.82;4.10;;;;;;;2.74;83.09;100738.22;6089604;23;20351;-84
2023/01/28 05:17:33;;;;;;;9.15;4.13;;;;;;;2.76;82.44;100746.88;6066953;23;20054;-83
2023/01/28 05:20:00;;;;;;;8.40;3.90;;;;;;;2.76;82.17;100749.50;6043685;23;20021;-84
2023/01/28 05:22:28;;;;;;;8.43;3.65;;;;;;;2.73;82.31;100745.25;6114521;23;20118;-84
2023/01/28 05:25:13;;;;;;;9.98;3.90;;;;;;;2.73;82.21;100744.38;6066832;23;20339;-84
2023/01/28 05:27:40;;;;;;;9.43;3.97;;;;;;;2.74;82.21;100741.69;6066705;23;20632;-84
2023/01/28 05:30:08;;;;;;;9.35;4.40;;;;;;;2.74;82.28;100740.84;6090463;23;20042;-84
2023/01/28 05:32:34;;;;;;;8.48;4.03;;;;;;;2.73;82.15;100747.00;6066372;23;20646;-83
2023/01/28 05:35:01;;;;;;;10.93;4.75;;;;;;;2.74;81.92;100748.69;6067250;23;20017;-84
2023/01/28 05:37:28;;;;;;;11.48;4.32;;;;;;;2.72;82.13;100751.41;6090165;23;20446;-84
2023/01/28 05:39:56;;;;;;;10.27;4.32;;;;;;;2.72;81.69;100754.03;6042946;23;20089;-83
2023/01/28 05:42:23;;;;;;;10.20;4.18;;;;;;;2.72;82.06;100755.78;6091056;23;20018;-84
2023/01/28 05:44:55;;;;;;;11.43;3.65;;;;;;;2.72;82.10;100761.03;6067352;23;20077;-84
2023/01/28 05:47:37;;;;;;;11.82;4.63;;;;;;;2.73;81.94;100755.72;5993245;23;20030;-85
2023/01/28 05:50:24;;;;;;;12.02;4.35;;;;;;;2.73;82.00;100755.72;6009943;23;20022;-84
2023/01/28 05:53:13;;;;;;;15.13;4.93;;;;;;;2.76;82.11;100765.25;6068366;23;20085;-85
2023/01/28 05:55:42;;;;;;;11.50;4.75;;;;;;;2.81;82.22;100768.53;6114693;23;20465;-84
2023/01/28 05:58:09;;;;;;;13.50;5.10;;;;;;;2.79;81.93;100765.09;6089568;23;20374;-84
2023/01/28 06:00:36;;;;;;;14.18;5.05;;;;;;;2.83;81.84;100769.31;6066826;23;20036;-84
2023/01/28 06:03:04;;;;;;;12.88;5.30;;;;;;;2.82;81.78;100775.47;6114645;23;20400;-84
2023/01/28 06:05:31;;;;;;;11.60;4.82;;;;;;;2.81;81.77;100774.63;6090737;23;20022;-84
2023/01/28 06:07:59;;;;;;;15.20;5.95;;;;;;;2.78;81.59;100785.25;6090020;23;20025;-83
2023/01/28 06:10:26;;;;;;;14.43;4.68;;;;;;;2.74;81.50;100778.41;6115030;23;20021;-84
2023/01/28 06:12:54;;;;;;;11.75;5.45;;;;;;;2.78;81.04;100781.78;6043170;23;20533;-84
2023/01/28 06:15:59;;;;;;;9.20;4.30;;;;;;;2.77;81.55;100790.53;5974831;23;20029;-84
2023/01/28 06:18:37;;;;;;;11.02;4.57;;;;;;;2.80;81.33;100795.69;6068463;23;20049;-84
2023/01/28 06:21:04;;;;;;;16.27;4.70;;;;;;;2.80;81.13;100798.31;6066506;23;20320;-84
2023/01/28 06:23:31;;;;;;;14.07;5.75;;;;;;;2.74;81.53;100802.00;6065962;23;20343;-84
2023/01/28 06:25:58;;;;;;;16.40;5.75;;;;;;;2.60;81.70;100801.72;6081503;23;20045;-84
2023/01/28 06:28:24;;;;;;;10.88;5.03;;;;;;;2.67;81.60;100818.03;6089753;23;20026;-84
2023/01/28 06:30:52;;;;;;;13.52;4.72;;;;;;;2.61;81.18;100816.53;6067323;23;20101;-84
2023/01/28 06:33:19;;;;;;;12.60;5.35;;;;;;;2.69;80.98;100803.97;6113689;23;20053;-84
2023/01/28 06:35:46;;;;;;;16.45;6.25;;;;;;;2.74;80.88;100812.50;6090089;23;20092;-84
2023/01/28 06:38:13;;;;;;;20.30;7.43;;;;;;;2.71;81.41;100817.88;6116227;23;20085;-85
2023/01/28 06:40:39;;;;;;;18.63;6.80;;;;;;;2.72;81.46;100811.72;6066276;23;20105;-84
2023/01/28 06:43:06;;;;;;;13.98;5.22;;;;;;;2.68;81.70;100817.16;6065732;23;20022;-84
2023/01/28 06:45:33;;;;;;;15.18;5.88;;;;;;;2.74;81.66;100815.13;6090488;23;20101;-84
2023/01/28 06:48:00;;;;;;;14.95;6.75;;;;;;;2.74;81.55;100816.91;6089618;23;20034;-84
2023/01/28 06:50:26;;;;;;;18.38;6.65;;;;;;;2.77;81.58;100824.63;6113265;23;20476;-84
2023/01/28 06:52:53;;;;;;;15.95;5.90;;;;;;;2.76;81.25;100823.78;6090865;23;20077;-84
2023/01/28 06:55:20;;;;;;;16.65;6.35;;;;;;;2.76;81.58;100836.91;6115747;23;20052;-84
2023/01/28 06:57:46;;;;;;;14.93;5.50;;;;;;;2.77;81.77;100830.75;6089969;23;20361;-83
2023/01/28 07:00:15;;;;;;;16.95;6.03;;;;;;;2.82;81.43;100843.66;6089398;23;20022;-84
2023/01/28 07:02:42;;;;;;;20.08;5.90;;;;;;;2.81;81.23;100844.59;6114341;23;20029;-84
2023/01/28 07:05:09;;;;;;;13.25;5.53;;;;;;;2.78;80.62;100837.69;6090049;23;20404;-84
2023/01/28 07:07:36;;;;;;;13.60;4.90;;;;;;;2.78;80.73;100837.69;6089469;23;20030;-84
2023/01/28 07:10:04;;;;;;;12.15;4.88;;;;;;;2.81;80.82;100841.97;6066971;23;20030;-84
2023/01/28 07:12:31;;;;;;;15.55;5.35;;;;;;;2.81;80.88;100847.22;6089774;23;20025;-84
2023/01/28 07:14:57;;;;;;;16.42;5.78;;;;;;;2.79;81.09;100844.63;6090121;23;20028;-84
2023/01/28 07:17:24;;;;;;;15.15;5.93;;;;;;;2.79;80.61;100847.25;6089370;23;20040;-84
2023/01/28 07:19:51;;;;;;;14.23;5.13;;;;;;;2.77;80.46;100850.84;6065360;23;20080;-84
2023/01/28 07:22:17;;;;;;;12.35;4.78;;;;;;;2.75;80.73;100850.94;6115819;23;20022;-84
2023/01/28 07:24:44;;;;;;;13.70;5.47;;;;;;;2.77;80.38;100851.75;6112858;23;20025;-84
2023/01/28 07:27:11;;;;;;;18.02;5.57;;;;;;;2.80;80.54;100853.38;6089251;23;20041;-84
2023/01/28 07:29:37;;;;;;;15.10;5.10;;;;;;;2.71;80.81;100859.84;6042418;23;20480;-83
2023/01/28 07:32:06;;;;;;;16.98;5.47;;;;;;;2.72;81.09;100858.94;6113620;23;20028;-81
2023/01/28 07:34:33;;;;;;;12.02;5.70;;;;;;;2.76;80.85;100857.03;6088330;23;20036;-81
2023/01/28 07:37:07;;;;;;;14.52;5.63;;;;;;;2.74;81.16;100856.22;6088795;23;20072;-82
2023/01/28 07:39:34;;;;;;;13.70;4.93;;;;;;;2.68;81.58;100867.81;6063961;23;20513;-81
2023/01/28 07:42:01;;;;;;;9.60;5.07;;;;;;;2.77;80.36;100871.84;6089290;23;20033;-81
2023/01/28 07:44:31;;;;;;;21.58;5.50;;;;;;;2.72;80.72;100865.94;6065759;23;20030;-80
2023/01/28 07:46:58;;;;;;;16.38;5.85;;;;;;;2.72;80.78;100869.44;6088052;23;20024;-81
2023/01/28 07:49:24;;;;;;;16.33;5.57;;;;;;;2.69;81.17;100876.53;6112991;23;20548;-81
2023/01/28 07:51:51;;;;;;;17.73;5.95;;;;;;;2.74;80.87;100867.56;6088254;23;20096;-81
2023/01/28 07:54:18;;;;;;;11.98;5.63;;;;;;;2.75;81.08;100873.69;6088515;23;20454;-81
2023/01/28 07:56:45;;;;;;;12.82;5.15;;;;;;;2.70;80.68;100873.03;6112632;23;20025;-81
2023/01/28 07:59:11;;;;;;;10.80;4.78;;;;;;;2.69;80.42;100884.41;6114327;23;20439;-81
2023/01/28 08:01:38;;;;;;;16.17;5.55;;;;;;;2.69;80.40;100876.53;6089333;23;20022;-81
2023/01/28 08:04:05;;;;;;;13.48;4.70;;;;;;;2.71;80.12;100872.94;6088445;23;20025;-81
2023/01/28 08:06:36;;;;;;;11.10;4.85;;;;;;;2.67;80.25;100883.59;6088876;23;20045;-81
2023/01/28 08:09:05;;;;;;;11.88;5.60;;;;;;;2.67;80.11;100887.13;6091107;23;20026;-80
2023/01/28 08:11:32;;;;;;;14.13;5.50;;;;;;;2.70;80.01;100876.50;6113369;23;20322;-81
2023/01/28 08:13:59;;;;;;;10.00;4.75;;;;;;;2.71;80.07;100870.31;6112394;23;20447;-81
2023/01/28 08:16:26;;;;;;;14.77;6.20;;;;;;;2.67;80.50;100875.75;6088916;23;20092;-81
2023/01/28 08:18:53;;;;;;;12.38;5.03;;;;;;;2.65;79.87;100875.81;6065554;23;20084;-81
2023/01/28 08:21:19;;;;;;;12.52;4.85;;;;;;;2.61;79.92;100880.31;6115844;23;20446;-81
2023/01/28 08:23:46;;;;;;;14.57;6.00;;;;;;;2.69;80.13;100884.41;6113925;23;20081;-81
2023/01/28 08:26:13;;;;;;;15.60;5.93;;;;;;;2.59;80.33;100886.53;6090748;23;20018;-80
2023/01/28 08:28:40;;;;;;;10.82;5.32;;;;;;;2.62;80.27;100894.31;6090406;23;20346;-81
2023/01/28 08:31:07;;;;;;;16.45;5.97;;;;;;;2.57;79.96;100897.09;6117219;23;20026;-81
2023/01/28 08:33:34;;;;;;;16.90;6.32;;;;;;;2.60;80.25;100901.38;6090691;23;20030;-81
2023/01/28 08:36:04;;;;;;;14.50;5.22;;;;;;;2.60;80.62;100890.88;6090964;23;20097;-81
2023/01/28 08:38:31;;;;;;;15.20;6.05;;;;;;;2.66;80.30;100901.13;6114214;23;20025;-81
2023/01/28 08:40:58;;;;;;;14.45;6.22;;;;;;;2.71;80.05;100898.31;6115169;23;20511;-82
2023/01/28 08:43:25;;;;;;;14.65;5.55;;;;;;;2.67;80.16;100899.34;6115856;23;20078;-82
2023/01/28 08:45:52;;;;;;;14.43;4.82;;;;;;;2.68;80.05;100903.69;6090688;23;20026;-82
2023/01/28 08:48:19;;;;;;;13.80;5.53;;;;;;;2.65;79.92;100894.19;6066263;23;20447;-82
2023/01/28 08:50:46;;;;;;;11.88;5.25;;;;;;;2.65;80.27;100906.44;6114872;23;20036;-82
2023/01/28 08:53:15;;;;;;;12.52;5.25;;;;;;;2.65;79.53;100909.06;6090732;23;20093;-81
2023/01/28 08:55:42;;;;;;;13.93;6.38;;;;;;;2.63;79.98;100906.50;6065793;23;20057;-81
2023/01/28 08:58:11;;;;;;;13.80;5.40;;;;;;;2.62;79.93;100920.53;6090703;23;20029;-81
2023/01/28 09:00:38;;;;;;;16.05;6.18;;;;;;;2.61;79.63;100913.56;6090764;23;20482;-81
2023/01/28 09:03:05;;;;;;;12.70;5.53;;;;;;;2.61;79.49;100911.78;6091236;23;20028;-81
2023/01/28 09:05:36;;;;;;;18.00;6.25;;;;;;;2.61;79.90;100913.56;6114052;23;20030;-81
2023/01/28 09:08:05;;;;;;;16.33;5.78;;;;;;;2.60;79.29;100909.22;6066825;23;20037;-81
2023/01/28 09:10:31;;;;;;;14.18;5.60;;;;;;;2.65;79.47;100923.03;6090800;23;20339;-82
2023/01/28 09:13:01;;;;;;;12.55;5.85;;;;;;;2.65;79.42;100917.78;6090544;23;20080;-82
2023/01/28 09:15:28;;;;;;;15.10;5.88;;;;;;;2.69;79.28;100929.00;6114064;23;20028;-82
2023/01/28 09:17:58;;;;;;;18.23;6.75;;;;;;;2.65;79.25;100919.56;6114765;23;20026;-81
2023/01/28 09:20:25;;;;;;;24.30;8.10;;;;;;;2.66;79.20;100921.25;6090909;23;20018;-81
2023/01/28 09:22:52;;;;;;;19.42;6.82;;;;;;;2.69;79.58;100935.09;6114708;23;20089;-82
2023/01/28 09:25:18;;;;;;;17.30;6.55;;;;;;;2.63;78.94;100926.63;6090365;23;20022;-82
2023/01/28 09:27:45;;;;;;;17.23;6.57;;;;;;;2.60;79.42;100932.84;6066487;23;20101;-82
2023/01/28 09:30:12;;;;;;;16.85;6.93;;;;;;;2.61;79.34;100932.75;6114813;23;20415;-82
2023/01/28 09:32:40;;;;;;;13.75;5.63;;;;;;;2.61;78.94;100932.75;6118731;23;20026;-82
2023/01/28 09:35:07;;;;;;;16.05;6.13;;;;;;;2.61;79.14;100929.28;6114126;23;20599;-82
2023/01/28 09:37:34;;;;;;;16.77;5.90;;;;;;;2.64;79.74;100928.31;6090736;23;20510;-82
2023/01/28 09:40:01;;;;;;;16.02;7.03;;;;;;;2.61;79.97;100938.00;6090514;23;20081;-82
2023/01/28 09:42:33;;;;;;;15.25;6.22;;;;;;;2.63;79.76;100937.94;6042964;23;20030;-83
2023/01/28 09:45:08;;;;;;;15.90;7.00;;;;;;;2.59;79.01;100944.22;6114676;23;20028;-83
2023/01/28 09:47:38;;;;;;;16.85;6.93;;;;;;;2.65;79.03;100951.88;6114394;23;20057;-82
2023/01/28 09:50:08;;;;;;;12.93;5.78;;;;;;;2.69;79.26;100957.84;6114670;23;20030;-82
2023/01/28 09:52:38;;;;;;;18.20;6.65;;;;;;;2.65;79.23;100959.72;6065914;23;20077;-82
2023/01/28 09:55:14;;;;;;;16.45;6.55;;;;;;;2.72;79.35;100950.72;6090084;23;20514;-83
2023/01/28 09:57:45;;;;;;;18.80;6.45;;;;;;;2.77;78.56;100961.91;6065341;23;20104;-82
2023/01/28 10:00:14;;;;;;;15.88;6.10;;;;;;;2.68;78.78;100961.38;6065826;23;20739;-82
2023/01/28 10:02:50;;;;;;;14.32;6.38;;;;;;;2.70;78.84;100960.41;6090634;23;20101;-82
2023/01/28 10:05:30;;;;;;;15.60;6.15;;;;;;;2.74;77.86;100961.13;6116462;23;20584;-82
2023/01/28 10:08:25;;;;;;;16.83;6.22;;;;;;;2.66;78.07;100956.19;6088117;23;20030;-82
2023/01/28 10:11:05;;;;;;;15.90;5.85;;;;;;;2.56;78.51;100960.91;6042709;23;20034;-81
2023/01/28 10:13:46;;;;;;;12.55;5.38;;;;;;;2.60;78.28;100959.06;6089050;23;20017;-83
2023/01/28 10:16:22;;;;;;;14.57;6.57;;;;;;;2.64;78.59;100958.00;6065294;23;20082;-82
2023/01/28 10:19:18;;;;;;;19.70;6.82;;;;;;;2.66;78.66;100950.94;6114419;23;20022;-82
2023/01/28 10:22:00;;;;;;;15.13;5.88;;;;;;;2.72;78.21;100944.59;6031039;23;20025;-82
2023/01/28 10:24:30;;;;;;;11.00;5.75;;;;;;;2.70;77.33;100946.47;6063430;23;20423;-82
2023/01/28 10:26:57;;;;;;;13.40;5.38;;;;;;;2.71;77.30;100951.63;6113836;23;20416;-82
2023/01/28 10:29:30;;;;;;;15.32;6.53;;;;;;;2.69;76.31;100952.59;6089960;23;20037;-81
2023/01/28 10:32:29;;;;;;;10.40;5.13;;;;;;;2.58;76.30;100947.75;6114399;23;20030;-82
2023/01/28 10:35:03;;;;;;;15.70;6.13;;;;;;;2.65;76.40;100951.88;5902009;23;20022;-82
2023/01/28 10:37:33;;;;;;;12.75;5.25;;;;;;;2.66;76.80;100955.34;6080720;23;20037;-82
2023/01/28 10:40:01;;;;;;;12.07;5.80;;;;;;;2.66;76.98;100955.34;6089897;23;20081;-82
2023/01/28 10:42:31;;;;;;;16.17;6.00;;;;;;;2.63;76.95;100958.09;6114314;23;20031;-82
2023/01/28 10:45:02;;;;;;;14.57;6.30;;;;;;;2.65;76.22;100958.88;6089205;23;20026;-82
2023/01/28 10:47:34;;;;;;;14.73;5.57;;;;;;;2.62;76.67;100954.59;6065460;23;20029;-82
2023/01/28 10:50:01;;;;;;;11.32;5.50;;;;;;;2.63;76.26;100958.94;6066487;23;20021;-82
2023/01/28 10:52:28;;;;;;;11.95;4.80;;;;;;;2.65;76.32;100961.50;6090198;23;20450;-82
2023/01/28 10:55:03;;;;;;;12.82;5.60;;;;;;;2.57;76.60;100962.66;6113328;23;20026;-82
2023/01/28 10:57:32;;;;;;;11.18;5.85;;;;;;;2.67;76.39;100962.28;6087749;23;20683;-81
2023/01/28 11:00:10;;;;;;;13.68;5.47;;;;;;;2.69;75.54;100958.69;6089202;23;20471;-82
2023/01/28 11:02:37;;;;;;;12.90;5.28;;;;;;;2.71;76.11;100963.88;6088213;23;20058;-81
2023/01/28 11:05:20;;;;;;;15.05;5.60;;;;;;;2.60;75.29;100962.53;6113384;23;20417;-82
2023/01/28 11:07:48;;;;;;;13.13;5.65;;;;;;;2.71;76.24;100966.50;6089404;23;20085;-82
2023/01/28 11:10:31;;;;;;;15.02;5.60;;;;;;;2.75;75.40;100955.00;6090602;23;20518;-82
2023/01/28 11:12:59;;;;;;;13.18;5.38;;;;;;;2.71;75.45;100971.75;6041768;23;20300;-82
2023/01/28 11:15:26;;;;;;;12.77;5.55;;;;;;;2.70;75.70;100970.06;6112878;23;20052;-82
2023/01/28 11:17:59;;;;;;;15.05;5.00;;;;;;;2.67;74.91;100975.41;6041397;23;20033;-82
2023/01/28 11:20:27;;;;;;;14.43;5.20;;;;;;;2.63;75.07;100966.78;6102898;23;20437;-81
2023/01/28 11:22:54;;;;;;;15.57;4.82;;;;;;;2.72;75.26;100970.81;6066137;23;20081;-82
2023/01/28 11:25:31;;;;;;;18.52;5.97;;;;;;;2.67;75.54;100971.03;6088700;23;20032;-81
2023/01/28 11:28:00;;;;;;;14.80;5.78;;;;;;;2.72;75.79;100976.06;6041923;23;20390;-81
2023/01/28 11:30:29;;;;;;;18.05;6.97;;;;;;;2.76;74.44;100962.78;6065644;23;20081;-81
2023/01/28 11:32:59;;;;;;;18.48;6.45;;;;;;;2.73;75.63;100970.78;6114296;23;20033;-81
2023/01/28 11:35:29;;;;;;;12.32;4.85;;;;;;;2.68;74.82;100977.13;6115267;23;20021;-81
2023/01/28 11:37:57;;;;;;;13.50;5.30;;;;;;;2.71;74.36;100969.13;6064811;23;20026;-82
2023/01/28 11:40:24;;;;;;;10.70;5.28;;;;;;;2.78;74.97;100971.47;6089101;23;20026;-82
2023/01/28 11:42:52;;;;;;;12.18;4.82;;;;;;;2.85;75.69;100963.34;6089083;23;20027;-84
2023/01/28 11:45:31;;;;;;;11.27;5.60;;;;;;;2.81;74.70;100976.59;6112577;23;20032;-82
2023/01/28 11:48:17;;;;;;;15.35;5.78;;;;;;;2.66;74.80;100974.53;6065180;23;20585;-84
2023/01/28 11:51:04;;;;;;;9.60;4.45;;;;;;;2.66;74.54;100974.53;6042282;23;20026;-83
2023/01/28 11:53:59;;;;;;;11.77;6.10;;;;;;;2.66;74.67;100982.41;6044677;23;20069;-83
2023/01/28 11:56:35;;;;;;;9.98;5.25;;;;;;;2.71;73.72;100988.34;6000918;23;20032;-83
2023/01/28 11:59:21;;;;;;;13.50;5.22;;;;;;;2.60;73.97;100973.00;6115296;23;20026;-84
2023/01/28 12:02:08;;;;;;;12.00;5.55;;;;;;;2.61;74.06;100973.88;6046129;23;20022;-82
2023/01/28 12:04:59;;;;;;;12.55;5.25;;;;;;;2.64;74.01;100978.97;6040402;23;20030;-80
2023/01/28 12:07:41;;;;;;;15.07;5.55;;;;;;;2.63;74.72;100969.41;6089488;23;20034;-82
2023/01/28 12:10:26;;;;;;;12.85;6.55;;;;;;;2.67;74.13;100970.16;6067101;23;20033;-81
2023/01/28 12:13:20;;;;;;;13.13;5.68;;;;;;;2.60;74.17;100959.91;6068234;23;20021;-81
2023/01/28 12:15:48;;;;;;;10.50;5.15;;;;;;;2.66;74.54;100957.97;6025659;23;20040;-81
2023/01/28 12:18:18;;;;;;;11.68;5.53;;;;;;;2.68;73.75;100956.16;6100294;23;20037;-82
2023/01/28 12:21:10;;;;;;;13.43;6.45;;;;;;;2.74;74.20;100945.41;6113464;23;20034;-82